createdAt,value
2017-10-04T00:00:10.866Z,12.87
2017-10-04T00:02:03.881Z,12.76
2017-10-04T00:03:03.913Z,12.85
2017-10-04T00:04:56.921Z,12.80
2017-10-04T00:05:56.963Z,12.75
2017-10-04T00:07:49.988Z,12.79
2017-10-04T00:08:50.016Z,12.87
2017-10-04T00:10:43.018Z,12.75
2017-10-04T00:11:43.065Z,12.73
2017-10-04T00:13:36.045Z,12.75
2017-10-04T00:14:36.106Z,12.79
2017-10-04T00:16:29.115Z,12.82
2017-10-04T00:17:29.157Z,12.79
2017-10-04T00:19:22.163Z,12.80
2017-10-04T00:20:22.203Z,12.73
2017-10-04T00:22:15.191Z,12.79
2017-10-04T00:23:15.254Z,12.70
2017-10-04T00:25:08.259Z,12.83
2017-10-04T00:26:08.297Z,12.78
2017-10-04T00:28:01.282Z,12.76
2017-10-04T00:29:01.343Z,12.75
2017-10-04T00:30:54.350Z,12.75
2017-10-04T00:31:54.389Z,12.76
2017-10-04T00:33:47.377Z,12.76
2017-10-04T00:34:47.438Z,12.73
2017-10-04T00:36:40.442Z,12.75
2017-10-04T00:37:40.483Z,12.68
2017-10-04T00:39:33.489Z,12.75
2017-10-04T00:40:33.529Z,12.75
2017-10-04T00:42:26.517Z,12.73
2017-10-04T00:43:26.577Z,12.75
2017-10-04T00:45:19.587Z,12.76
2017-10-04T00:46:19.625Z,12.75
2017-10-04T00:48:12.610Z,12.82
2017-10-04T00:49:12.670Z,12.73
2017-10-04T00:51:05.708Z,12.78
2017-10-04T00:52:05.725Z,12.75
2017-10-04T00:53:58.712Z,12.76
2017-10-04T00:54:58.774Z,12.75
2017-10-04T00:56:51.783Z,12.76
2017-10-04T00:57:51.824Z,12.76
2017-10-04T00:59:44.825Z,12.70
2017-10-04T01:00:44.863Z,12.70
2017-10-04T01:02:37.853Z,12.73
2017-10-04T01:03:37.910Z,12.68
2017-10-04T01:05:30.914Z,12.68
2017-10-04T01:06:30.955Z,12.65
2017-10-04T01:08:23.943Z,12.64
2017-10-04T01:09:24.005Z,12.67
2017-10-04T01:11:17.015Z,12.64
2017-10-04T01:12:17.055Z,12.72
2017-10-04T01:14:10.047Z,12.61
2017-10-04T01:15:10.105Z,12.64
2017-10-04T01:17:03.132Z,12.64
2017-10-04T01:18:03.151Z,12.61
2017-10-04T01:19:56.194Z,12.57
2017-10-04T01:20:56.196Z,12.55
2017-10-04T01:22:49.182Z,12.61
2017-10-04T01:23:49.244Z,12.50
2017-10-04T01:25:42.249Z,12.64
2017-10-04T01:26:42.306Z,12.64
2017-10-04T01:28:35.273Z,12.64
2017-10-04T01:29:35.334Z,12.53
2017-10-04T01:31:28.348Z,12.50
2017-10-04T01:32:28.380Z,12.58
2017-10-04T01:34:21.368Z,12.50
2017-10-04T01:35:21.429Z,12.49
2017-10-04T01:37:14.433Z,12.50
2017-10-04T01:38:14.474Z,12.53
2017-10-04T01:40:07.486Z,12.47
2017-10-04T01:41:07.528Z,12.53
2017-10-04T01:43:00.516Z,12.49
2017-10-04T01:44:00.574Z,12.53
2017-10-04T01:45:53.583Z,12.53
2017-10-04T01:46:53.626Z,12.55
2017-10-04T01:48:46.611Z,12.54
2017-10-04T01:49:46.673Z,12.53
2017-10-04T01:51:39.680Z,12.47
2017-10-04T01:52:39.720Z,12.58
2017-10-04T01:54:32.706Z,12.50
2017-10-04T01:55:32.767Z,12.50
2017-10-04T01:57:25.780Z,12.58
2017-10-04T01:58:25.811Z,12.49
2017-10-04T02:00:18.816Z,12.54
2017-10-04T02:01:18.857Z,12.50
2017-10-04T02:03:11.860Z,12.54
2017-10-04T02:04:11.920Z,12.47
2017-10-04T02:06:04.925Z,12.57
2017-10-04T02:07:04.966Z,12.50
2017-10-04T02:08:57.951Z,12.53
2017-10-04T02:09:58.011Z,12.39
2017-10-04T02:11:51.018Z,12.40
2017-10-04T02:12:51.060Z,12.40
2017-10-04T02:14:44.044Z,12.42
2017-10-04T02:15:44.110Z,12.43
2017-10-04T02:17:37.108Z,12.43
2017-10-04T02:18:37.153Z,12.40
2017-10-04T02:20:30.155Z,12.40
2017-10-04T02:21:30.196Z,12.40
2017-10-04T02:23:23.184Z,12.43
2017-10-04T02:24:23.242Z,12.36
2017-10-04T02:26:16.249Z,12.40
2017-10-04T02:27:16.289Z,12.45
2017-10-04T02:29:09.273Z,12.49
2017-10-04T02:30:09.335Z,12.45
2017-10-04T02:32:02.539Z,12.43
2017-10-04T02:33:02.581Z,12.43
2017-10-04T02:34:55.564Z,12.40
2017-10-04T02:35:55.626Z,12.46
2017-10-04T02:37:48.632Z,12.46
2017-10-04T02:38:48.671Z,12.42
2017-10-04T02:40:41.679Z,12.45
2017-10-04T02:41:41.719Z,12.46
2017-10-04T02:43:34.706Z,12.43
2017-10-04T02:44:34.767Z,12.43
2017-10-04T02:46:27.774Z,12.40
2017-10-04T02:47:27.813Z,12.45
2017-10-04T02:49:20.798Z,12.42
2017-10-04T02:50:20.858Z,12.53
2017-10-04T02:52:13.864Z,12.39
2017-10-04T02:53:13.904Z,12.54
2017-10-04T02:55:06.907Z,12.45
2017-10-04T02:56:06.951Z,12.42
2017-10-04T02:57:59.954Z,12.40
2017-10-04T02:58:59.994Z,12.39
2017-10-04T03:00:53.528Z,12.46
2017-10-04T03:01:53.580Z,12.45
2017-10-04T03:03:46.659Z,12.39
2017-10-04T03:04:46.601Z,12.42
2017-10-04T03:06:39.606Z,12.47
2017-10-04T03:07:39.646Z,12.45
2017-10-04T03:09:32.637Z,12.43
2017-10-04T03:10:32.693Z,12.46
2017-10-04T03:12:25.725Z,12.40
2017-10-04T03:13:25.741Z,12.43
2017-10-04T03:15:18.731Z,12.45
2017-10-04T03:16:18.808Z,12.42
2017-10-04T03:18:11.847Z,12.43
2017-10-04T03:19:11.843Z,12.40
2017-10-04T03:21:04.845Z,12.42
2017-10-04T03:22:04.924Z,12.43
2017-10-04T03:23:57.959Z,12.36
2017-10-04T03:24:57.930Z,12.39
2017-10-04T03:26:51.004Z,12.43
2017-10-04T03:27:50.976Z,12.32
2017-10-04T03:29:44.011Z,12.39
2017-10-04T03:30:44.022Z,12.39
2017-10-04T03:32:37.527Z,12.39
2017-10-04T03:33:37.580Z,12.42
2017-10-04T03:35:30.556Z,12.39
2017-10-04T03:36:30.625Z,12.37
2017-10-04T03:38:23.770Z,12.40
2017-10-04T03:39:23.659Z,12.37
2017-10-04T03:41:16.666Z,12.40
2017-10-04T03:42:16.773Z,12.36
2017-10-04T03:44:09.697Z,12.36
2017-10-04T03:45:09.792Z,12.31
2017-10-04T03:47:02.765Z,12.43
2017-10-04T03:48:02.821Z,12.37
2017-10-04T03:49:55.804Z,12.36
2017-10-04T03:50:55.852Z,12.29
2017-10-04T03:52:48.857Z,12.35
2017-10-04T03:53:48.899Z,12.29
2017-10-04T03:55:41.888Z,12.39
2017-10-04T03:56:41.946Z,12.36
2017-10-04T03:58:34.955Z,12.27
2017-10-04T03:59:35.017Z,12.31
2017-10-04T04:01:28.105Z,12.32
2017-10-04T04:02:28.062Z,12.28
2017-10-04T04:04:21.087Z,12.22
2017-10-04T04:05:21.188Z,12.25
2017-10-04T04:07:14.120Z,12.25
2017-10-04T04:08:14.254Z,12.21
2017-10-04T04:10:07.218Z,12.20
2017-10-04T04:11:07.250Z,12.15
2017-10-04T04:13:00.232Z,12.22
2017-10-04T04:14:00.285Z,12.15
2017-10-04T04:15:53.354Z,12.12
2017-10-04T04:16:53.434Z,12.12
2017-10-04T04:18:46.356Z,12.12
2017-10-04T04:19:46.441Z,12.15
2017-10-04T04:21:39.400Z,12.04
2017-10-04T04:22:39.506Z,12.02
2017-10-04T04:24:32.437Z,12.00
2017-10-04T04:25:32.561Z,12.06
2017-10-04T04:27:25.531Z,12.04
2017-10-04T04:28:25.635Z,11.91
2017-10-04T04:30:30.191Z,11.97
2017-10-04T04:31:30.290Z,12.03
2017-10-04T04:33:23.315Z,12.06
2017-10-04T04:34:23.348Z,12.07
2017-10-04T04:36:16.337Z,12.04
2017-10-04T04:37:16.365Z,11.94
2017-10-04T04:39:09.399Z,11.95
2017-10-04T04:40:09.378Z,11.90
2017-10-04T04:42:02.388Z,12.06
2017-10-04T04:43:02.439Z,12.07
2017-10-04T04:44:55.432Z,12.07
2017-10-04T04:45:55.485Z,12.06
2017-10-04T04:47:48.488Z,11.99
2017-10-04T04:48:48.587Z,12.03
2017-10-04T04:50:41.508Z,12.03
2017-10-04T04:51:42.532Z,12.06
2017-10-04T04:53:34.585Z,12.00
2017-10-04T04:54:34.645Z,11.97
2017-10-04T04:56:27.610Z,12.04
2017-10-04T04:57:27.738Z,12.04
2017-10-04T04:59:20.667Z,12.02
2017-10-04T05:00:20.699Z,11.99
2017-10-04T05:02:13.735Z,11.87
2017-10-04T05:03:13.783Z,11.97
2017-10-04T05:05:06.731Z,11.91
2017-10-04T05:06:06.792Z,11.97
2017-10-04T05:07:59.872Z,11.91
2017-10-04T05:08:59.957Z,11.94
2017-10-04T05:10:52.838Z,12.02
2017-10-04T05:11:52.933Z,12.04
2017-10-04T05:13:45.907Z,11.95
2017-10-04T05:14:45.952Z,12.04
2017-10-04T05:16:38.938Z,12.02
2017-10-04T05:17:38.996Z,12.02
2017-10-04T05:19:32.003Z,12.07
2017-10-04T05:20:32.044Z,12.06
2017-10-04T05:22:25.047Z,11.99
2017-10-04T05:23:25.086Z,12.04
2017-10-04T05:25:18.073Z,12.04
2017-10-04T05:26:18.134Z,12.07
2017-10-04T05:28:11.138Z,12.03
2017-10-04T05:29:11.177Z,12.00
2017-10-04T05:31:04.161Z,12.00
2017-10-04T05:32:04.220Z,12.03
2017-10-04T05:33:57.225Z,12.06
2017-10-04T05:34:57.264Z,12.02
2017-10-04T05:36:50.251Z,11.99
2017-10-04T05:37:50.311Z,12.03
2017-10-04T05:39:43.320Z,12.07
2017-10-04T05:40:43.361Z,11.90
2017-10-04T05:42:36.366Z,11.99
2017-10-04T05:43:36.405Z,11.88
2017-10-04T05:45:29.393Z,11.88
2017-10-04T05:46:29.452Z,11.83
2017-10-04T05:48:22.466Z,11.88
2017-10-04T05:49:22.506Z,11.87
2017-10-04T05:51:15.504Z,11.80
2017-10-04T05:52:15.555Z,11.80
2017-10-04T05:54:08.561Z,11.77
2017-10-04T05:55:08.605Z,11.72
2017-10-04T05:57:01.591Z,11.75
2017-10-04T05:58:01.646Z,11.80
2017-10-04T05:59:54.654Z,11.86
2017-10-04T06:00:54.694Z,11.83
2017-10-04T06:02:47.704Z,11.87
2017-10-04T06:03:47.750Z,11.88
2017-10-04T06:05:40.743Z,11.91
2017-10-04T06:06:40.794Z,11.95
2017-10-04T06:08:33.804Z,11.91
2017-10-04T06:09:33.846Z,11.91
2017-10-04T06:11:26.829Z,11.97
2017-10-04T06:12:26.890Z,12.04
2017-10-04T06:14:19.895Z,12.04
2017-10-04T06:15:19.935Z,12.04
2017-10-04T06:17:12.922Z,12.12
2017-10-04T06:18:12.982Z,12.18
2017-10-04T06:20:05.988Z,12.22
2017-10-04T06:21:06.029Z,12.22
2017-10-04T06:22:59.045Z,12.21
2017-10-04T06:23:59.085Z,12.24
2017-10-04T06:25:52.081Z,12.36
2017-10-04T06:26:52.142Z,12.45
2017-10-04T06:28:45.148Z,12.46
2017-10-04T06:29:45.186Z,12.47
2017-10-04T06:31:38.176Z,12.57
2017-10-04T06:32:38.237Z,12.67
2017-10-04T06:34:31.243Z,12.75
2017-10-04T06:35:31.281Z,12.72
2017-10-04T06:37:24.275Z,12.79
2017-10-04T06:38:24.335Z,12.75
2017-10-04T06:40:17.341Z,12.73
2017-10-04T06:41:17.382Z,12.75
2017-10-04T06:43:10.385Z,12.85
2017-10-04T06:44:10.426Z,12.87
2017-10-04T06:46:03.411Z,12.93
2017-10-04T06:47:03.470Z,12.91
2017-10-04T06:48:56.481Z,13.04
2017-10-04T06:49:56.523Z,12.98
2017-10-04T06:51:49.512Z,12.98
2017-10-04T06:52:49.571Z,12.98
2017-10-04T06:54:42.575Z,13.00
2017-10-04T06:55:42.617Z,13.11
2017-10-04T06:57:35.608Z,13.00
2017-10-04T06:58:35.666Z,13.04
2017-10-04T07:00:28.689Z,13.08
2017-10-04T07:01:28.716Z,13.13
2017-10-04T07:03:21.723Z,13.22
2017-10-04T07:04:21.763Z,13.23
2017-10-04T07:06:14.752Z,13.23
2017-10-04T07:07:14.809Z,13.22
2017-10-04T07:09:07.816Z,13.30
2017-10-04T07:10:07.856Z,13.27
2017-10-04T07:12:00.847Z,13.15
2017-10-04T07:13:00.910Z,13.19
2017-10-04T07:14:53.915Z,13.22
2017-10-04T07:15:53.955Z,13.25
2017-10-04T07:17:46.939Z,13.31
2017-10-04T07:18:47.000Z,13.31
2017-10-04T07:20:40.009Z,13.25
2017-10-04T07:21:40.049Z,13.30
2017-10-04T07:23:33.058Z,13.50
2017-10-04T07:24:33.097Z,13.49
2017-10-04T07:26:26.087Z,13.53
2017-10-04T07:27:26.145Z,13.52
2017-10-04T07:29:19.155Z,13.72
2017-10-04T07:30:19.205Z,13.81
2017-10-04T07:32:12.184Z,13.90
2017-10-04T07:33:12.245Z,13.97
2017-10-04T07:35:05.256Z,13.92
2017-10-04T07:36:05.296Z,13.92
2017-10-04T07:37:58.285Z,13.97
2017-10-04T07:38:58.343Z,14.05
2017-10-04T07:40:51.349Z,14.11
2017-10-04T07:41:51.391Z,14.12
2017-10-04T07:43:44.394Z,14.08
2017-10-04T07:44:44.440Z,14.15
2017-10-04T07:46:37.428Z,14.08
2017-10-04T07:47:37.488Z,14.08
2017-10-04T07:49:30.493Z,13.97
2017-10-04T07:50:30.539Z,14.03
2017-10-04T07:52:23.528Z,13.97
2017-10-04T07:53:23.588Z,13.92
2017-10-04T07:55:16.595Z,13.95
2017-10-04T07:56:16.638Z,14.04
2017-10-04T07:58:09.626Z,13.89
2017-10-04T07:59:09.688Z,13.92
2017-10-04T08:01:02.691Z,13.87
2017-10-04T08:02:02.736Z,13.96
2017-10-04T08:03:55.743Z,14.12
2017-10-04T08:04:55.785Z,14.15
2017-10-04T08:06:48.769Z,14.11
2017-10-04T08:07:48.831Z,14.12
2017-10-04T08:09:41.839Z,14.00
2017-10-04T08:10:41.882Z,14.03
2017-10-04T08:12:34.872Z,14.08
2017-10-04T08:13:34.932Z,14.10
2017-10-04T08:15:27.940Z,13.92
2017-10-04T08:16:27.977Z,14.03
2017-10-04T08:18:20.968Z,14.08
2017-10-04T08:19:21.027Z,14.10
2017-10-04T08:21:14.033Z,14.22
2017-10-04T08:22:14.075Z,14.07
2017-10-04T08:24:07.083Z,14.14
2017-10-04T08:25:07.123Z,14.07
2017-10-04T08:27:00.114Z,14.18
2017-10-04T08:28:00.175Z,14.14
2017-10-04T08:29:53.187Z,13.97
2017-10-04T08:30:53.231Z,14.05
2017-10-04T08:32:46.221Z,14.10
2017-10-04T08:33:46.280Z,14.05
2017-10-04T08:35:39.289Z,14.10
2017-10-04T08:36:39.330Z,14.07
2017-10-04T08:38:32.384Z,14.30
2017-10-04T08:39:32.380Z,14.50
2017-10-04T08:41:25.387Z,15.11
2017-10-04T08:42:25.428Z,15.11
2017-10-04T08:44:18.440Z,15.04
2017-10-04T08:45:18.483Z,15.02
2017-10-04T08:47:11.471Z,15.03
2017-10-04T08:48:11.533Z,15.07
2017-10-04T08:50:04.542Z,15.46
2017-10-04T08:51:04.585Z,15.70
2017-10-04T08:52:57.573Z,15.84
2017-10-04T08:53:57.636Z,15.86
2017-10-04T08:55:50.643Z,15.80
2017-10-04T08:56:50.687Z,15.92
2017-10-04T08:58:43.676Z,15.94
2017-10-04T08:59:43.740Z,15.68
2017-10-04T09:01:37.268Z,15.37
2017-10-04T09:02:37.307Z,15.52
2017-10-04T09:04:30.319Z,15.57
2017-10-04T09:05:30.361Z,15.55
2017-10-04T09:07:23.352Z,15.68
2017-10-04T09:08:23.415Z,15.68
2017-10-04T09:10:16.422Z,15.37
2017-10-04T09:11:16.468Z,15.09
2017-10-04T09:13:09.460Z,15.09
2017-10-04T09:14:09.517Z,15.02
2017-10-04T09:16:02.525Z,15.09
2017-10-04T09:17:02.570Z,14.94
2017-10-04T09:18:55.560Z,15.14
2017-10-04T09:19:55.623Z,15.07
2017-10-04T09:21:48.630Z,15.24
2017-10-04T09:22:48.673Z,15.24
2017-10-04T09:24:41.685Z,15.09
2017-10-04T09:25:41.728Z,15.06
2017-10-04T09:27:34.724Z,15.07
2017-10-04T09:28:34.788Z,15.28
2017-10-04T09:30:27.801Z,15.28
2017-10-04T09:31:27.847Z,15.37
2017-10-04T09:33:20.839Z,15.28
2017-10-04T09:34:20.900Z,15.17
2017-10-04T09:36:13.911Z,15.36
2017-10-04T09:37:13.953Z,15.43
2017-10-04T09:39:06.945Z,15.40
2017-10-04T09:40:07.009Z,15.46
2017-10-04T09:42:00.017Z,15.49
2017-10-04T09:43:00.061Z,15.62
2017-10-04T09:44:53.068Z,15.47
2017-10-04T09:45:53.114Z,15.57
2017-10-04T09:47:46.105Z,15.49
2017-10-04T09:48:46.176Z,15.47
2017-10-04T09:50:39.181Z,15.11
2017-10-04T09:51:39.220Z,15.25
2017-10-04T09:53:32.212Z,15.19
2017-10-04T09:54:32.274Z,15.27
2017-10-04T09:56:25.295Z,15.27
2017-10-04T09:57:25.333Z,15.35
2017-10-04T09:59:18.322Z,15.19
2017-10-04T10:00:18.384Z,15.27
2017-10-04T10:02:11.904Z,15.31
2017-10-04T10:03:11.945Z,15.35
2017-10-04T10:05:04.954Z,15.44
2017-10-04T10:06:04.997Z,15.37
2017-10-04T10:07:57.990Z,15.18
2017-10-04T10:08:58.053Z,15.06
2017-10-04T10:10:51.062Z,15.10
2017-10-04T10:11:51.104Z,15.04
2017-10-04T10:13:44.092Z,15.11
2017-10-04T10:14:44.155Z,15.10
2017-10-04T10:16:37.167Z,15.00
2017-10-04T10:17:37.211Z,15.17
2017-10-04T10:19:30.199Z,15.07
2017-10-04T10:20:30.260Z,15.11
2017-10-04T10:22:23.269Z,15.40
2017-10-04T10:23:23.311Z,15.37
2017-10-04T10:25:16.323Z,15.43
2017-10-04T10:26:16.365Z,15.47
2017-10-04T10:28:09.353Z,15.65
2017-10-04T10:29:09.416Z,15.82
2017-10-04T10:31:02.425Z,15.82
2017-10-04T10:32:02.467Z,15.94
2017-10-04T10:33:55.458Z,15.95
2017-10-04T10:34:55.518Z,15.94
2017-10-04T10:36:48.527Z,15.90
2017-10-04T10:37:48.571Z,15.88
2017-10-04T10:39:41.566Z,15.79
2017-10-04T10:40:41.626Z,15.86
2017-10-04T10:42:34.645Z,16.02
2017-10-04T10:43:34.687Z,15.86
2017-10-04T10:45:27.697Z,15.79
2017-10-04T10:46:27.742Z,15.94
2017-10-04T10:48:20.735Z,15.95
2017-10-04T10:49:20.806Z,16.05
2017-10-04T10:51:13.814Z,15.92
2017-10-04T10:52:13.858Z,15.98
2017-10-04T10:54:06.867Z,15.92
2017-10-04T10:55:06.911Z,15.92
2017-10-04T10:56:59.922Z,15.91
2017-10-04T10:57:59.966Z,15.79
2017-10-04T10:59:52.961Z,15.92
2017-10-04T11:00:53.020Z,15.91
2017-10-04T11:02:46.031Z,16.09
2017-10-04T11:03:46.075Z,16.15
2017-10-04T11:05:39.088Z,16.02
2017-10-04T11:06:39.137Z,16.21
2017-10-04T11:08:32.126Z,16.24
2017-10-04T11:09:32.189Z,16.23
2017-10-04T11:11:25.200Z,15.90
2017-10-04T11:12:25.240Z,15.86
2017-10-04T11:14:18.248Z,15.88
2017-10-04T11:15:18.312Z,15.90
2017-10-04T11:17:11.328Z,16.01
2017-10-04T11:18:11.372Z,16.23
2017-10-04T11:20:04.374Z,16.28
2017-10-04T11:21:04.440Z,16.21
2017-10-04T11:22:57.450Z,16.49
2017-10-04T11:23:57.494Z,16.64
2017-10-04T11:25:50.504Z,16.87
2017-10-04T11:26:50.546Z,17.08
2017-10-04T11:28:43.538Z,16.90
2017-10-04T11:29:43.604Z,16.94
2017-10-04T11:31:36.611Z,17.01
2017-10-04T11:32:36.655Z,16.89
2017-10-04T11:34:29.648Z,17.02
2017-10-04T11:35:29.710Z,17.01
2017-10-04T11:37:22.729Z,17.16
2017-10-04T11:38:22.774Z,17.22
2017-10-04T11:40:15.767Z,17.27
2017-10-04T11:41:15.831Z,17.29
2017-10-04T11:43:08.852Z,17.22
2017-10-04T11:44:08.886Z,17.19
2017-10-04T11:46:01.901Z,17.12
2017-10-04T11:47:01.944Z,17.11
2017-10-04T11:48:54.942Z,17.11
2017-10-04T11:49:54.999Z,16.64
2017-10-04T11:51:48.010Z,16.66
2017-10-04T11:52:48.057Z,16.65
2017-10-04T11:54:41.059Z,16.51
2017-10-04T11:55:41.110Z,16.51
2017-10-04T11:57:34.124Z,16.23
2017-10-04T11:58:34.167Z,16.23
2017-10-04T12:00:27.158Z,16.35
2017-10-04T12:01:27.225Z,16.41
2017-10-04T12:03:20.240Z,16.41
2017-10-04T12:04:20.288Z,16.36
2017-10-04T12:06:13.308Z,16.28
2017-10-04T12:07:13.345Z,16.12
2017-10-04T12:09:06.349Z,16.05
2017-10-04T12:10:06.411Z,15.92
2017-10-04T12:11:59.425Z,15.79
2017-10-04T12:12:59.470Z,15.79
2017-10-04T12:14:52.461Z,15.91
2017-10-04T12:15:52.524Z,15.86
2017-10-04T12:17:45.532Z,16.13
2017-10-04T12:18:45.576Z,16.21
2017-10-04T12:20:38.571Z,16.17
2017-10-04T12:21:38.629Z,15.95
2017-10-04T12:23:31.641Z,16.05
2017-10-04T12:24:31.687Z,16.17
2017-10-04T12:26:24.704Z,16.21
2017-10-04T12:27:24.745Z,16.29
2017-10-04T12:29:17.737Z,16.20
2017-10-04T12:30:17.803Z,16.23
2017-10-04T12:32:10.825Z,16.23
2017-10-04T12:33:10.858Z,15.98
2017-10-04T12:35:03.853Z,15.94
2017-10-04T12:36:03.916Z,15.80
2017-10-04T12:37:56.930Z,15.72
2017-10-04T12:38:56.973Z,15.70
2017-10-04T12:40:49.963Z,15.65
2017-10-04T12:41:50.025Z,15.70
2017-10-04T12:43:43.036Z,15.79
2017-10-04T12:44:43.078Z,15.80
2017-10-04T12:46:36.090Z,15.84
2017-10-04T12:47:36.132Z,15.82
2017-10-04T12:49:29.131Z,15.83
2017-10-04T12:50:29.183Z,15.94
2017-10-04T12:52:22.206Z,16.10
2017-10-04T12:53:22.239Z,16.17
2017-10-04T12:55:15.231Z,16.12
2017-10-04T12:56:15.292Z,16.16
2017-10-04T12:58:08.304Z,15.98
2017-10-04T12:59:08.344Z,16.09
2017-10-04T13:01:01.337Z,15.98
2017-10-04T13:02:01.399Z,15.98
2017-10-04T13:03:54.411Z,16.02
2017-10-04T13:04:54.455Z,15.98
2017-10-04T13:06:47.472Z,16.12
2017-10-04T13:07:47.507Z,16.09
2017-10-04T13:09:40.500Z,15.94
2017-10-04T13:10:40.559Z,15.92
2017-10-04T13:12:33.571Z,15.91
2017-10-04T13:13:33.613Z,15.92
2017-10-04T13:15:26.607Z,15.88
2017-10-04T13:16:26.668Z,15.97
2017-10-04T13:18:19.678Z,15.91
2017-10-04T13:19:19.722Z,15.84
2017-10-04T13:21:12.713Z,15.84
2017-10-04T13:22:12.778Z,15.75
2017-10-04T13:24:05.790Z,15.91
2017-10-04T13:25:05.830Z,15.90
2017-10-04T13:26:58.844Z,15.94
2017-10-04T13:27:58.887Z,15.72
2017-10-04T13:29:51.874Z,15.83
2017-10-04T13:30:51.937Z,15.82
2017-10-04T13:32:44.949Z,15.76
2017-10-04T13:33:44.990Z,15.68
2017-10-04T13:35:37.985Z,15.62
2017-10-04T13:36:38.052Z,15.68
2017-10-04T13:38:31.059Z,15.70
2017-10-04T13:39:31.104Z,15.64
2017-10-04T13:41:24.092Z,15.67
2017-10-04T13:42:24.154Z,15.67
2017-10-04T13:44:17.166Z,15.68
2017-10-04T13:45:17.205Z,15.59
2017-10-04T13:47:10.212Z,15.67
2017-10-04T13:48:10.257Z,15.55
2017-10-04T13:50:03.252Z,15.54
2017-10-04T13:51:03.317Z,15.44
2017-10-04T13:52:56.330Z,15.51
2017-10-04T13:53:56.374Z,15.44
2017-10-04T13:55:49.372Z,15.47
2017-10-04T13:56:49.435Z,15.47
2017-10-04T13:58:42.443Z,15.39
2017-10-04T13:59:42.488Z,15.40
2017-10-04T14:01:36.988Z,15.43
2017-10-04T14:02:37.064Z,15.36
2017-10-04T14:04:30.062Z,15.24
2017-10-04T14:05:30.104Z,15.28
2017-10-04T14:07:23.131Z,15.27
2017-10-04T14:08:23.160Z,15.25
2017-10-04T14:10:16.147Z,15.28
2017-10-04T14:11:16.205Z,15.35
2017-10-04T14:13:09.214Z,15.14
2017-10-04T14:14:09.257Z,15.18
2017-10-04T14:16:02.249Z,15.27
2017-10-04T14:17:02.336Z,15.17
2017-10-04T14:18:55.323Z,15.28
2017-10-04T14:19:55.364Z,15.29
2017-10-04T14:21:48.359Z,15.27
2017-10-04T14:22:48.419Z,15.36
2017-10-04T14:24:41.428Z,15.37
2017-10-04T14:25:41.470Z,15.33
2017-10-04T14:27:35.352Z,15.22
2017-10-04T14:28:35.394Z,15.35
2017-10-04T14:30:28.383Z,15.25
2017-10-04T14:31:28.468Z,15.27
2017-10-04T14:33:22.013Z,15.36
2017-10-04T14:34:21.525Z,15.29
2017-10-04T14:36:14.517Z,15.39
2017-10-04T14:37:14.575Z,15.24
2017-10-04T14:39:07.587Z,15.21
2017-10-04T14:40:07.631Z,15.22
2017-10-04T14:42:00.633Z,15.25
2017-10-04T14:43:00.695Z,15.25
2017-10-04T14:44:53.698Z,15.11
2017-10-04T14:45:53.741Z,15.15
2017-10-04T14:47:48.277Z,15.07
2017-10-04T14:48:48.305Z,15.03
2017-10-04T14:50:41.309Z,15.07
2017-10-04T14:51:41.497Z,15.14
2017-10-04T14:53:34.942Z,15.06
2017-10-04T14:54:34.449Z,15.19
2017-10-04T14:56:27.424Z,15.09
2017-10-04T14:57:27.487Z,15.27
2017-10-04T14:59:21.018Z,15.17
2017-10-04T15:00:21.055Z,15.17
2017-10-04T15:03:10.419Z,15.22
2017-10-04T15:04:02.775Z,15.15
2017-10-04T15:05:55.769Z,15.10
2017-10-04T15:06:55.836Z,15.15
2017-10-04T15:08:48.901Z,15.04
2017-10-04T15:09:48.940Z,15.06
2017-10-04T15:11:42.252Z,15.04
2017-10-04T15:12:42.281Z,15.03
2017-10-04T15:14:36.278Z,15.10
2017-10-04T15:15:35.288Z,15.06
2017-10-04T15:17:28.072Z,15.11
2017-10-04T15:18:28.089Z,15.07
2017-10-04T15:23:14.758Z,15.17
2017-10-04T15:24:14.808Z,15.11
2017-10-04T15:26:08.284Z,15.11
2017-10-04T15:27:08.361Z,15.11
2017-10-04T15:29:01.462Z,15.11
2017-10-04T15:30:01.447Z,15.06
2017-10-04T15:31:54.415Z,15.04
2017-10-04T15:32:54.488Z,15.07
2017-10-04T15:34:47.544Z,15.02
2017-10-04T15:35:48.510Z,15.04
2017-10-04T15:37:40.602Z,15.03
2017-10-04T15:40:27.410Z,15.14
2017-10-04T15:41:26.358Z,15.06
2017-10-04T15:43:19.465Z,15.00
2017-10-04T15:44:19.513Z,15.02
2017-10-04T15:46:24.533Z,15.00
2017-10-04T15:47:24.193Z,14.96
2017-10-04T15:49:32.723Z,15.00
2017-10-04T15:50:29.867Z,14.97
2017-10-04T15:52:23.898Z,14.94
2017-10-04T15:53:24.068Z,14.96
2017-10-04T15:55:17.071Z,14.81
2017-10-04T15:56:17.047Z,14.88
2017-10-04T15:58:10.015Z,14.84
2017-10-04T15:59:10.057Z,14.79
2017-10-04T16:01:03.045Z,14.72
2017-10-04T16:02:03.106Z,14.72
2017-10-04T16:03:56.114Z,14.77
2017-10-04T16:04:56.156Z,14.73
2017-10-04T16:06:49.669Z,14.72
2017-10-04T16:07:49.715Z,14.77
2017-10-04T16:09:42.723Z,14.66
2017-10-04T16:10:42.767Z,14.68
2017-10-04T16:12:36.267Z,14.70
2017-10-04T16:13:36.323Z,14.60
2017-10-04T16:15:29.334Z,14.58
2017-10-04T16:16:29.390Z,14.59
2017-10-04T16:18:22.387Z,14.55
2017-10-04T16:19:22.429Z,14.51
2017-10-04T16:21:15.418Z,14.53
2017-10-04T16:22:15.482Z,14.48
2017-10-04T16:24:08.487Z,14.48
2017-10-04T16:25:08.530Z,14.41
2017-10-04T16:27:01.523Z,14.50
2017-10-04T16:28:01.587Z,14.44
2017-10-04T16:29:54.601Z,14.51
2017-10-04T16:30:54.636Z,14.41
2017-10-04T16:32:47.626Z,14.47
2017-10-04T16:33:47.689Z,14.48
2017-10-04T16:35:40.692Z,14.44
2017-10-04T16:36:40.736Z,14.40
2017-10-04T16:38:33.742Z,14.44
2017-10-04T16:39:33.788Z,14.40
2017-10-04T16:41:26.778Z,14.40
2017-10-04T16:42:26.841Z,14.40
2017-10-04T16:44:19.851Z,14.40
2017-10-04T16:45:19.890Z,14.44
2017-10-04T16:47:12.878Z,14.33
2017-10-04T16:48:12.942Z,14.30
2017-10-04T16:50:05.948Z,14.32
2017-10-04T16:51:05.989Z,14.33
2017-10-04T16:52:59.017Z,14.33
2017-10-04T16:53:59.045Z,14.29
2017-10-04T16:55:52.056Z,14.33
2017-10-04T16:56:52.100Z,14.26
2017-10-04T16:58:45.113Z,14.33
2017-10-04T16:59:45.159Z,14.29
2017-10-04T17:01:38.159Z,14.28
2017-10-04T17:02:38.198Z,14.28
2017-10-04T17:04:31.205Z,14.18
2017-10-04T17:05:31.246Z,14.17
2017-10-04T17:07:24.237Z,14.28
2017-10-04T17:08:24.299Z,14.15
2017-10-04T17:10:17.306Z,14.18
2017-10-04T17:11:17.347Z,14.22
2017-10-04T17:13:10.859Z,14.23
2017-10-04T17:14:10.903Z,14.18
2017-10-04T17:16:03.912Z,14.23
2017-10-04T17:17:03.954Z,14.17
2017-10-04T17:18:56.962Z,14.22
2017-10-04T17:19:57.005Z,14.10
2017-10-04T17:21:49.997Z,14.12
2017-10-04T17:22:50.055Z,14.07
2017-10-04T17:24:43.589Z,14.08
2017-10-04T17:25:43.612Z,14.12
2017-10-04T17:27:36.607Z,14.11
2017-10-04T17:28:36.679Z,14.10
2017-10-04T17:30:29.677Z,14.05
2017-10-04T17:31:29.718Z,13.99
2017-10-04T17:33:22.715Z,14.00
2017-10-04T17:34:22.772Z,13.93
2017-10-04T17:36:15.779Z,14.05
2017-10-04T17:37:15.821Z,14.03
2017-10-04T17:39:08.826Z,14.00
2017-10-04T17:40:08.883Z,13.99
2017-10-04T17:42:02.377Z,13.97
2017-10-04T17:43:02.424Z,13.87
2017-10-04T17:44:55.433Z,13.97
2017-10-04T17:45:55.480Z,13.99
2017-10-04T17:47:48.465Z,13.90
2017-10-04T17:48:48.525Z,13.96
2017-10-04T17:50:42.046Z,13.97
2017-10-04T17:51:42.079Z,13.90
2017-10-04T17:53:35.079Z,13.89
2017-10-04T17:54:35.129Z,13.92
2017-10-04T17:56:28.141Z,13.86
2017-10-04T17:57:28.179Z,13.93
2017-10-04T17:59:21.188Z,14.03
2017-10-04T18:00:21.228Z,13.92
2017-10-04T18:02:14.220Z,13.90
2017-10-04T18:03:14.277Z,13.92
2017-10-04T18:05:07.305Z,13.93
2017-10-04T18:06:07.328Z,13.90
2017-10-04T18:08:00.318Z,13.90
2017-10-04T18:09:00.417Z,13.89
2017-10-04T18:10:53.899Z,13.92
2017-10-04T18:11:53.933Z,13.90
2017-10-04T18:13:46.924Z,13.79
2017-10-04T18:14:46.986Z,13.79
2017-10-04T18:16:39.994Z,13.90
2017-10-04T18:17:40.034Z,13.77
2017-10-04T18:19:33.047Z,13.90
2017-10-04T18:20:33.096Z,13.81
2017-10-04T18:22:26.602Z,13.79
2017-10-04T18:23:26.644Z,13.74
2017-10-04T18:25:19.654Z,13.83
2017-10-04T18:26:19.701Z,13.75
2017-10-04T18:28:12.687Z,13.86
2017-10-04T18:29:12.752Z,13.83
2017-10-04T18:31:05.757Z,13.90
2017-10-04T18:32:05.798Z,13.77
2017-10-04T18:33:58.788Z,13.87
2017-10-04T18:34:58.846Z,13.77
2017-10-04T18:36:51.853Z,13.90
2017-10-04T18:37:51.937Z,13.90
2017-10-04T18:39:44.912Z,13.89